全部
Tibooburra Airport (Tibooburra, New South Wales) TYB 天气
|
Tibooburra, New South Wales (TYB / YTIB)
晴天
微风 |
|
21 °C |
There is no TAF data available at TYB or any nearby airports.
TYB近期METAR历史数据
| Date | Time (AEST) | Flight Rules | Wind Dir. | Speed | Type | Height AGL (ft) | Visibility | Temp (°C) | Temp (°F) | Dew Point (°C) | Dew Point (°F) | Rel. Humid. | Pressure | Density Altitude | Remarks |
|---|---|---|---|---|---|---|---|---|---|---|---|---|---|---|---|
| 04-五月 | 16:00 | n/a | 270° | 7 kt | Missing | 21° | 69° | 6° | 42° | 38% | 1017 mb | 1,192 ft | |||
| 04-五月 | 15:00 | n/a | 260° | 10 kt | Missing | 21° | 69° | 6° | 42° | 38% | 1017 mb | 1,192 ft | |||
| 04-五月 | 14:00 | n/a | 250° | 10 kt | Missing | 21° | 69° | 7° | 44° | 40% | 1017 mb | 1,192 ft | |||
| 04-五月 | 13:00 | n/a | 260° | 9 kt | Missing | 20° | 68° | 6° | 42° | 40% | 1018 mb | 1,042 ft | |||
| 04-五月 | 12:00 | n/a | 250° | 7 kt | Missing | 20° | 68° | 8° | 46° | 46% | 1019 mb | 1,013 ft | |||
| 04-五月 | 11:00 | n/a | 220° | 7 kt | Missing | 19° | 66° | 9° | 48° | 52% | 1019 mb | 893 ft | |||
| 04-五月 | 10:00 | n/a | 240° | 7 kt | Missing | 17° | 62° | 11° | 51° | 68% | 1019 mb | 653 ft | |||
| 04-五月 | 09:00 | n/a | 250° | 5 kt | Missing | 15° | 59° | 10° | 50° | 72% | 1019 mb | 413 ft | |||
| 04-五月 | 08:00 | n/a | 280° | 7 kt | Missing | 12° | 53° | 10° | 50° | 88% | 1018 mb | 82 ft | |||
| 04-五月 | 07:00 | n/a | 270° | 5 kt | Missing | 10° | 50° | 9° | 48° | 93% | 1018 mb | -158 ft | |||
| 04-五月 | 06:00 | n/a | 260° | 6 kt | Missing | 11° | 51° | 10° | 50° | 94% | 1017 mb | -8 ft | |||
| 04-五月 | 05:00 | n/a | 260° | 7 kt | Missing | 11° | 51° | 9° | 48° | 87% | 1017 mb | -8 ft | |||
| 04-五月 | 04:00 | n/a | 260° | 7 kt | Missing | 12° | 53° | 10° | 50° | 88% | 1017 mb | 112 ft | |||
| 04-五月 | 03:00 | n/a | 260° | 6 kt | Missing | 12° | 53° | 11° | 51° | 94% | 1017 mb | 112 ft | |||
| 04-五月 | 02:00 | n/a | 270° | 6 kt | Missing | 13° | 55° | 12° | 53° | 94% | 1017 mb | 232 ft | |||
| 04-五月 | 01:00 | n/a | 250° | 4 kt | Missing | 13° | 55° | 12° | 53° | 94% | 1017 mb | 232 ft | |||
| 04-五月 | 00:00 | n/a | 250° | 5 kt | Missing | 13° | 55° | 12° | 53° | 94% | 1018 mb | 202 ft | |||
| 03-五月 | 23:00 | n/a | 250° | 4 kt | Missing | 13° | 55° | 13° | 55° | 100% | 1018 mb | 202 ft | |||
| 03-五月 | 22:00 | n/a | 190° | 2 kt | Missing | 14° | 57° | 12° | 53° | 88% | 1018 mb | 322 ft | |||
| 03-五月 | 21:00 | n/a | 200° | 5 kt | Missing | 14° | 57° | 13° | 55° | 94% | 1017 mb | 352 ft | |||
| 03-五月 | 20:00 | n/a | 230° | 6 kt | Missing | 15° | 59° | 14° | 57° | 94% | 1017 mb | 472 ft | |||
| 03-五月 | 19:00 | n/a | 90° | 3 kt | Missing | 15° | 59° | 14° | 57° | 94% | 1016 mb | 502 ft | |||
| 03-五月 | 18:00 | n/a | 210° | 5 kt | Missing | 15° | 59° | 14° | 57° | 94% | 1016 mb | 502 ft | |||
| 03-五月 | 17:00 | n/a | 190° | 5 kt | Missing | 16° | 60° | 13° | 55° | 82% | 1016 mb | 622 ft |
登录
| 您的浏览器不支持. 升级您的浏览器 |
